sensor_id;sensor_type;location;lat;lon;timestamp;temperature;humidity
74792;SHT30;63319;46.046;17.802;2023-03-01T00:02:05;19.90;41.38
74792;SHT30;63319;46.046;17.802;2023-03-01T00:05:08;19.92;41.10
74792;SHT30;63319;46.046;17.802;2023-03-01T00:08:12;19.92;41.48
74792;SHT30;63319;46.046;17.802;2023-03-01T00:11:18;19.90;41.18
74792;SHT30;63319;46.046;17.802;2023-03-01T00:14:21;19.92;41.11
74792;SHT30;63319;46.046;17.802;2023-03-01T00:17:24;19.90;41.30
74792;SHT30;63319;46.046;17.802;2023-03-01T00:20:29;19.87;41.01
74792;SHT30;63319;46.046;17.802;2023-03-01T00:23:33;19.92;40.94
74792;SHT30;63319;46.046;17.802;2023-03-01T00:26:37;19.90;41.20
74792;SHT30;63319;46.046;17.802;2023-03-01T00:29:40;19.90;41.04
74792;SHT30;63319;46.046;17.802;2023-03-01T00:32:43;19.90;41.06
74792;SHT30;63319;46.046;17.802;2023-03-01T00:35:46;19.90;41.13
74792;SHT30;63319;46.046;17.802;2023-03-01T00:38:49;19.92;41.11
74792;SHT30;63319;46.046;17.802;2023-03-01T00:41:51;19.89;41.31
74792;SHT30;63319;46.046;17.802;2023-03-01T00:44:54;19.90;41.24
74792;SHT30;63319;46.046;17.802;2023-03-01T00:47:57;19.89;41.22
74792;SHT30;63319;46.046;17.802;2023-03-01T00:51:18;19.90;40.98
74792;SHT30;63319;46.046;17.802;2023-03-01T00:54:21;19.90;40.99
74792;SHT30;63319;46.046;17.802;2023-03-01T00:57:27;19.92;41.07
74792;SHT30;63319;46.046;17.802;2023-03-01T01:00:33;19.90;41.16
74792;SHT30;63319;46.046;17.802;2023-03-01T01:04:02;19.93;41.17
74792;SHT30;63319;46.046;17.802;2023-03-01T01:07:12;19.90;41.07
74792;SHT30;63319;46.046;17.802;2023-03-01T01:10:20;19.92;40.97
74792;SHT30;63319;46.046;17.802;2023-03-01T01:13:23;19.90;40.90
74792;SHT30;63319;46.046;17.802;2023-03-01T01:16:33;19.90;41.00
74792;SHT30;63319;46.046;17.802;2023-03-01T01:19:39;19.90;40.83
74792;SHT30;63319;46.046;17.802;2023-03-01T01:22:42;19.89;41.05
74792;SHT30;63319;46.046;17.802;2023-03-01T01:25:46;19.87;41.14
74792;SHT30;63319;46.046;17.802;2023-03-01T01:28:49;19.86;41.22
74792;SHT30;63319;46.046;17.802;2023-03-01T01:31:52;19.87;41.08
74792;SHT30;63319;46.046;17.802;2023-03-01T01:34:55;19.85;40.93
74792;SHT30;63319;46.046;17.802;2023-03-01T01:37:58;19.87;40.77
74792;SHT30;63319;46.046;17.802;2023-03-01T01:41:01;19.85;41.14
74792;SHT30;63319;46.046;17.802;2023-03-01T01:44:22;19.87;41.27
74792;SHT30;63319;46.046;17.802;2023-03-01T01:47:26;19.90;41.13
74792;SHT30;63319;46.046;17.802;2023-03-01T01:50:31;19.90;41.09
74792;SHT30;63319;46.046;17.802;2023-03-01T01:53:42;19.87;40.34
74792;SHT30;63319;46.046;17.802;2023-03-01T01:56:56;19.86;41.02
74792;SHT30;63319;46.046;17.802;2023-03-01T02:00:06;19.86;40.85
74792;SHT30;63319;46.046;17.802;2023-03-01T02:03:22;19.86;40.99
74792;SHT30;63319;46.046;17.802;2023-03-01T02:06:40;19.86;40.97
74792;SHT30;63319;46.046;17.802;2023-03-01T02:09:49;19.86;41.04
74792;SHT30;63319;46.046;17.802;2023-03-01T02:12:54;19.89;40.98
74792;SHT30;63319;46.046;17.802;2023-03-01T02:15:59;19.85;41.11
74792;SHT30;63319;46.046;17.802;2023-03-01T02:19:05;19.85;40.89
74792;SHT30;63319;46.046;17.802;2023-03-01T02:22:27;19.86;40.92
74792;SHT30;63319;46.046;17.802;2023-03-01T02:25:55;19.86;41.14
74792;SHT30;63319;46.046;17.802;2023-03-01T02:29:00;19.86;40.72
74792;SHT30;63319;46.046;17.802;2023-03-01T02:32:04;19.85;41.21
74792;SHT30;63319;46.046;17.802;2023-03-01T02:35:12;19.86;41.00
74792;SHT30;63319;46.046;17.802;2023-03-01T02:38:19;19.83;40.91
74792;SHT30;63319;46.046;17.802;2023-03-01T02:41:23;19.85;41.16
74792;SHT30;63319;46.046;17.802;2023-03-01T02:44:27;19.83;40.76
74792;SHT30;63319;46.046;17.802;2023-03-01T02:47:30;19.83;40.99
74792;SHT30;63319;46.046;17.802;2023-03-01T02:54:22;19.83;41.21
74792;SHT30;63319;46.046;17.802;2023-03-01T02:57:28;19.82;40.98
74792;SHT30;63319;46.046;17.802;2023-03-01T03:00:39;19.83;40.95
74792;SHT30;63319;46.046;17.802;2023-03-01T03:03:44;19.83;40.92
74792;SHT30;63319;46.046;17.802;2023-03-01T03:06:49;19.81;40.82
74792;SHT30;63319;46.046;17.802;2023-03-01T03:09:52;19.82;41.02
74792;SHT30;63319;46.046;17.802;2023-03-01T03:13:10;19.79;40.78
74792;SHT30;63319;46.046;17.802;2023-03-01T03:16:14;19.82;41.13
74792;SHT30;63319;46.046;17.802;2023-03-01T03:19:18;19.82;41.23
74792;SHT30;63319;46.046;17.802;2023-03-01T03:22:21;19.82;41.26
74792;SHT30;63319;46.046;17.802;2023-03-01T03:25:26;19.83;41.07
74792;SHT30;63319;46.046;17.802;2023-03-01T03:28:32;19.82;40.88
74792;SHT30;63319;46.046;17.802;2023-03-01T03:31:36;19.83;41.32
74792;SHT30;63319;46.046;17.802;2023-03-01T03:34:39;19.81;40.98
74792;SHT30;63319;46.046;17.802;2023-03-01T03:37:41;19.81;40.92
74792;SHT30;63319;46.046;17.802;2023-03-01T03:41:06;19.81;41.22
74792;SHT30;63319;46.046;17.802;2023-03-01T03:44:09;19.79;41.00
74792;SHT30;63319;46.046;17.802;2023-03-01T03:47:12;19.76;41.19
74792;SHT30;63319;46.046;17.802;2023-03-01T03:50:17;19.78;41.26
74792;SHT30;63319;46.046;17.802;2023-03-01T03:53:21;19.78;41.01
74792;SHT30;63319;46.046;17.802;2023-03-01T03:56:24;19.78;41.09
74792;SHT30;63319;46.046;17.802;2023-03-01T03:59:30;19.78;41.22
74792;SHT30;63319;46.046;17.802;2023-03-01T04:02:32;19.82;41.00
74792;SHT30;63319;46.046;17.802;2023-03-01T04:05:36;19.79;40.64
74792;SHT30;63319;46.046;17.802;2023-03-01T04:08:39;19.75;41.24
74792;SHT30;63319;46.046;17.802;2023-03-01T04:11:43;19.75;40.98
74792;SHT30;63319;46.046;17.802;2023-03-01T04:14:46;19.75;40.88
74792;SHT30;63319;46.046;17.802;2023-03-01T04:17:51;19.76;41.16
74792;SHT30;63319;46.046;17.802;2023-03-01T04:20:58;19.78;41.10
74792;SHT30;63319;46.046;17.802;2023-03-01T04:24:01;19.75;41.20
74792;SHT30;63319;46.046;17.802;2023-03-01T04:27:06;19.76;41.04
74792;SHT30;63319;46.046;17.802;2023-03-01T04:30:10;19.71;40.85
74792;SHT30;63319;46.046;17.802;2023-03-01T04:33:22;19.72;41.12
74792;SHT30;63319;46.046;17.802;2023-03-01T04:36:27;19.73;41.11
74792;SHT30;63319;46.046;17.802;2023-03-01T04:39:30;19.75;41.30
74792;SHT30;63319;46.046;17.802;2023-03-01T04:42:33;19.73;41.35
74792;SHT30;63319;46.046;17.802;2023-03-01T04:45:36;19.76;41.33
74792;SHT30;63319;46.046;17.802;2023-03-01T04:48:40;19.73;40.87
74792;SHT30;63319;46.046;17.802;2023-03-01T04:51:44;19.79;41.16
74792;SHT30;63319;46.046;17.802;2023-03-01T04:54:46;19.78;41.27
74792;SHT30;63319;46.046;17.802;2023-03-01T04:57:52;19.76;41.11
74792;SHT30;63319;46.046;17.802;2023-03-01T05:00:56;19.78;41.07
74792;SHT30;63319;46.046;17.802;2023-03-01T05:04:00;19.78;41.16
74792;SHT30;63319;46.046;17.802;2023-03-01T05:07:05;19.78;41.14
74792;SHT30;63319;46.046;17.802;2023-03-01T05:10:08;19.78;41.09
74792;SHT30;63319;46.046;17.802;2023-03-01T05:13:14;19.75;40.74
74792;SHT30;63319;46.046;17.802;2023-03-01T05:16:23;19.75;41.10
74792;SHT30;63319;46.046;17.802;2023-03-01T05:19:26;19.76;40.86
74792;SHT30;63319;46.046;17.802;2023-03-01T05:22:29;19.76;41.13
74792;SHT30;63319;46.046;17.802;2023-03-01T05:25:33;19.73;41.40
74792;SHT30;63319;46.046;17.802;2023-03-01T05:28:36;19.73;41.14
74792;SHT30;63319;46.046;17.802;2023-03-01T05:31:40;19.72;41.21
74792;SHT30;63319;46.046;17.802;2023-03-01T05:34:43;19.73;41.03
74792;SHT30;63319;46.046;17.802;2023-03-01T05:37:49;19.72;41.32
74792;SHT30;63319;46.046;17.802;2023-03-01T05:40:52;19.73;41.07
74792;SHT30;63319;46.046;17.802;2023-03-01T05:43:55;19.73;41.29
74792;SHT30;63319;46.046;17.802;2023-03-01T05:46:58;19.72;41.31
74792;SHT30;63319;46.046;17.802;2023-03-01T05:50:01;19.72;41.23
74792;SHT30;63319;46.046;17.802;2023-03-01T05:53:11;19.73;41.27
74792;SHT30;63319;46.046;17.802;2023-03-01T05:56:14;19.75;41.14
74792;SHT30;63319;46.046;17.802;2023-03-01T05:59:17;19.76;41.46
74792;SHT30;63319;46.046;17.802;2023-03-01T06:02:20;19.76;41.36
74792;SHT30;63319;46.046;17.802;2023-03-01T06:05:26;19.78;41.57
74792;SHT30;63319;46.046;17.802;2023-03-01T06:08:30;19.78;41.41
74792;SHT30;63319;46.046;17.802;2023-03-01T06:11:36;19.78;41.34
74792;SHT30;63319;46.046;17.802;2023-03-01T06:14:39;19.73;41.26
74792;SHT30;63319;46.046;17.802;2023-03-01T06:17:43;19.81;41.09
74792;SHT30;63319;46.046;17.802;2023-03-01T06:20:56;19.79;41.56
74792;SHT30;63319;46.046;17.802;2023-03-01T06:23:58;19.83;41.37
74792;SHT30;63319;46.046;17.802;2023-03-01T06:27:01;19.81;41.57
74792;SHT30;63319;46.046;17.802;2023-03-01T06:30:05;19.81;41.16
74792;SHT30;63319;46.046;17.802;2023-03-01T06:33:10;19.82;41.27
74792;SHT30;63319;46.046;17.802;2023-03-01T06:36:13;19.82;41.39
74792;SHT30;63319;46.046;17.802;2023-03-01T06:39:15;19.85;41.56
74792;SHT30;63319;46.046;17.802;2023-03-01T06:42:20;19.83;41.43
74792;SHT30;63319;46.046;17.802;2023-03-01T06:45:25;19.83;41.35
74792;SHT30;63319;46.046;17.802;2023-03-01T06:48:28;19.87;41.38
74792;SHT30;63319;46.046;17.802;2023-03-01T06:51:31;19.89;41.68
74792;SHT30;63319;46.046;17.802;2023-03-01T06:54:34;19.92;42.56
74792;SHT30;63319;46.046;17.802;2023-03-01T06:57:37;19.93;42.79
74792;SHT30;63319;46.046;17.802;2023-03-01T07:00:45;19.92;42.27
74792;SHT30;63319;46.046;17.802;2023-03-01T07:03:48;19.94;42.31
74792;SHT30;63319;46.046;17.802;2023-03-01T07:06:50;19.94;41.87
74792;SHT30;63319;46.046;17.802;2023-03-01T07:09:57;19.92;41.65
74792;SHT30;63319;46.046;17.802;2023-03-01T07:13:00;19.90;41.68
74792;SHT30;63319;46.046;17.802;2023-03-01T07:16:03;19.89;41.84
74792;SHT30;63319;46.046;17.802;2023-03-01T07:19:06;19.87;41.74
74792;SHT30;63319;46.046;17.802;2023-03-01T07:22:09;19.92;41.84
74792;SHT30;63319;46.046;17.802;2023-03-01T07:25:13;19.87;42.23
74792;SHT30;63319;46.046;17.802;2023-03-01T07:28:15;19.93;42.30
74792;SHT30;63319;46.046;17.802;2023-03-01T07:31:18;19.92;42.30
74792;SHT30;63319;46.046;17.802;2023-03-01T07:34:21;19.96;42.69
74792;SHT30;63319;46.046;17.802;2023-03-01T07:37:24;19.97;42.90
74792;SHT30;63319;46.046;17.802;2023-03-01T07:40:28;19.97;42.43
74792;SHT30;63319;46.046;17.802;2023-03-01T07:43:31;20.00;42.86
74792;SHT30;63319;46.046;17.802;2023-03-01T07:46:34;20.02;44.22
74792;SHT30;63319;46.046;17.802;2023-03-01T07:49:37;20.08;44.33
74792;SHT30;63319;46.046;17.802;2023-03-01T07:52:40;20.06;44.59
74792;SHT30;63319;46.046;17.802;2023-03-01T07:55:43;20.06;44.59
74792;SHT30;63319;46.046;17.802;2023-03-01T07:58:46;20.08;44.55
74792;SHT30;63319;46.046;17.802;2023-03-01T08:01:55;20.13;44.47
74792;SHT30;63319;46.046;17.802;2023-03-01T08:04:58;20.12;44.34
74792;SHT30;63319;46.046;17.802;2023-03-01T08:08:01;20.16;44.21
74792;SHT30;63319;46.046;17.802;2023-03-01T08:11:06;20.14;44.30
74792;SHT30;63319;46.046;17.802;2023-03-01T08:14:13;20.16;44.30
74792;SHT30;63319;46.046;17.802;2023-03-01T08:17:17;20.17;44.17
74792;SHT30;63319;46.046;17.802;2023-03-01T08:20:23;20.17;43.52
74792;SHT30;63319;46.046;17.802;2023-03-01T08:23:27;20.16;43.00
74792;SHT30;63319;46.046;17.802;2023-03-01T08:26:31;20.16;43.08
74792;SHT30;63319;46.046;17.802;2023-03-01T08:29:35;20.16;43.06
74792;SHT30;63319;46.046;17.802;2023-03-01T08:32:39;20.19;42.48
74792;SHT30;63319;46.046;17.802;2023-03-01T08:35:42;20.13;42.94
74792;SHT30;63319;46.046;17.802;2023-03-01T08:38:45;20.17;42.82
74792;SHT30;63319;46.046;17.802;2023-03-01T08:41:48;20.17;43.19
74792;SHT30;63319;46.046;17.802;2023-03-01T08:44:51;20.17;42.66
74792;SHT30;63319;46.046;17.802;2023-03-01T08:47:54;20.17;42.73
74792;SHT30;63319;46.046;17.802;2023-03-01T08:51:16;20.16;42.68
74792;SHT30;63319;46.046;17.802;2023-03-01T08:54:22;20.16;42.49
74792;SHT30;63319;46.046;17.802;2023-03-01T08:57:25;20.16;42.86
74792;SHT30;63319;46.046;17.802;2023-03-01T09:00:33;20.17;42.73
74792;SHT30;63319;46.046;17.802;2023-03-01T09:03:37;20.19;42.52
74792;SHT30;63319;46.046;17.802;2023-03-01T09:06:40;20.17;42.61
74792;SHT30;63319;46.046;17.802;2023-03-01T09:09:43;20.14;42.93
74792;SHT30;63319;46.046;17.802;2023-03-01T09:12:46;20.17;43.00
74792;SHT30;63319;46.046;17.802;2023-03-01T09:15:49;20.16;42.93
74792;SHT30;63319;46.046;17.802;2023-03-01T09:18:53;20.14;43.21
74792;SHT30;63319;46.046;17.802;2023-03-01T09:21:56;20.19;43.45
74792;SHT30;63319;46.046;17.802;2023-03-01T09:25:01;20.14;42.59
74792;SHT30;63319;46.046;17.802;2023-03-01T09:28:04;20.13;43.16
74792;SHT30;63319;46.046;17.802;2023-03-01T09:31:07;20.13;42.95
74792;SHT30;63319;46.046;17.802;2023-03-01T09:34:10;20.13;43.28
74792;SHT30;63319;46.046;17.802;2023-03-01T09:37:13;20.12;43.53
74792;SHT30;63319;46.046;17.802;2023-03-01T09:40:21;20.13;43.37
74792;SHT30;63319;46.046;17.802;2023-03-01T09:43:28;20.16;43.74
74792;SHT30;63319;46.046;17.802;2023-03-01T09:46:40;20.17;43.18
74792;SHT30;63319;46.046;17.802;2023-03-01T09:50:00;20.20;43.19
74792;SHT30;63319;46.046;17.802;2023-03-01T09:53:16;20.23;42.51
74792;SHT30;63319;46.046;17.802;2023-03-01T09:56:24;20.19;42.41
74792;SHT30;63319;46.046;17.802;2023-03-01T10:00:09;20.20;42.67
74792;SHT30;63319;46.046;17.802;2023-03-01T10:03:42;20.21;42.89
74792;SHT30;63319;46.046;17.802;2023-03-01T10:07:42;20.21;42.60
74792;SHT30;63319;46.046;17.802;2023-03-01T10:10:48;20.20;42.57
74792;SHT30;63319;46.046;17.802;2023-03-01T10:17:24;20.24;42.69
74792;SHT30;63319;46.046;17.802;2023-03-01T10:20:45;20.27;42.98
74792;SHT30;63319;46.046;17.802;2023-03-01T10:23:53;20.30;43.39
74792;SHT30;63319;46.046;17.802;2023-03-01T10:26:58;20.30;42.69
74792;SHT30;63319;46.046;17.802;2023-03-01T10:30:13;20.33;43.10
74792;SHT30;63319;46.046;17.802;2023-03-01T10:33:28;20.31;42.34
74792;SHT30;63319;46.046;17.802;2023-03-01T10:36:33;20.30;43.30
74792;SHT30;63319;46.046;17.802;2023-03-01T10:39:36;20.36;43.59
74792;SHT30;63319;46.046;17.802;2023-03-01T10:42:46;20.34;43.05
74792;SHT30;63319;46.046;17.802;2023-03-01T10:45:50;20.36;42.91
74792;SHT30;63319;46.046;17.802;2023-03-01T10:49:18;20.36;43.38
74792;SHT30;63319;46.046;17.802;2023-03-01T10:52:25;20.37;43.26
74792;SHT30;63319;46.046;17.802;2023-03-01T10:55:35;20.37;43.21
74792;SHT30;63319;46.046;17.802;2023-03-01T11:05:26;20.41;43.00
74792;SHT30;63319;46.046;17.802;2023-03-01T11:08:43;20.43;42.88
74792;SHT30;63319;46.046;17.802;2023-03-01T11:11:55;20.45;42.77
74792;SHT30;63319;46.046;17.802;2023-03-01T11:14:58;20.50;42.64
74792;SHT30;63319;46.046;17.802;2023-03-01T11:18:02;20.55;42.46
74792;SHT30;63319;46.046;17.802;2023-03-01T11:21:16;20.57;42.39
74792;SHT30;63319;46.046;17.802;2023-03-01T11:24:19;20.55;42.01
74792;SHT30;63319;46.046;17.802;2023-03-01T11:27:32;20.61;42.27
74792;SHT30;63319;46.046;17.802;2023-03-01T11:30:57;20.64;42.19
74792;SHT30;63319;46.046;17.802;2023-03-01T11:34:23;20.67;42.09
74792;SHT30;63319;46.046;17.802;2023-03-01T11:37:36;20.65;42.05
74792;SHT30;63319;46.046;17.802;2023-03-01T11:40:56;20.65;41.96
74792;SHT30;63319;46.046;17.802;2023-03-01T11:47:11;20.64;41.97
74792;SHT30;63319;46.046;17.802;2023-03-01T11:50:33;20.68;42.15
74792;SHT30;63319;46.046;17.802;2023-03-01T12:10:48;20.72;41.81
74792;SHT30;63319;46.046;17.802;2023-03-01T12:14:13;20.74;41.61
74792;SHT30;63319;46.046;17.802;2023-03-01T12:20:59;20.81;41.49
74792;SHT30;63319;46.046;17.802;2023-03-01T12:34:39;21.00;41.06
74792;SHT30;63319;46.046;17.802;2023-03-01T12:41:37;20.96;41.05
74792;SHT30;63319;46.046;17.802;2023-03-01T12:48:27;20.98;54.32
74792;SHT30;63319;46.046;17.802;2023-03-01T12:51:40;20.85;43.35
74792;SHT30;63319;46.046;17.802;2023-03-01T12:54:45;20.82;42.10
74792;SHT30;63319;46.046;17.802;2023-03-01T12:57:57;20.84;43.41
74792;SHT30;63319;46.046;17.802;2023-03-01T13:01:35;20.84;45.58
74792;SHT30;63319;46.046;17.802;2023-03-01T13:08:23;20.88;46.11
74792;SHT30;63319;46.046;17.802;2023-03-01T13:11:34;20.89;47.29
74792;SHT30;63319;46.046;17.802;2023-03-01T13:14:44;20.94;47.26
74792;SHT30;63319;46.046;17.802;2023-03-01T13:17:52;20.95;46.93
74792;SHT30;63319;46.046;17.802;2023-03-01T13:21:01;20.96;46.48
74792;SHT30;63319;46.046;17.802;2023-03-01T13:24:27;20.98;46.18
74792;SHT30;63319;46.046;17.802;2023-03-01T13:27:30;20.99;45.74
74792;SHT30;63319;46.046;17.802;2023-03-01T13:30:44;21.02;46.08
74792;SHT30;63319;46.046;17.802;2023-03-01T13:33:58;21.03;45.80
74792;SHT30;63319;46.046;17.802;2023-03-01T13:37:19;21.02;45.06
74792;SHT30;63319;46.046;17.802;2023-03-01T13:43:30;20.99;44.63
74792;SHT30;63319;46.046;17.802;2023-03-01T13:46:38;20.95;44.97
74792;SHT30;63319;46.046;17.802;2023-03-01T13:49:53;20.95;44.99
74792;SHT30;63319;46.046;17.802;2023-03-01T13:53:02;20.92;44.83
74792;SHT30;63319;46.046;17.802;2023-03-01T13:59:21;20.92;44.44
74792;SHT30;63319;46.046;17.802;2023-03-01T14:02:24;20.91;44.50
74792;SHT30;63319;46.046;17.802;2023-03-01T14:05:26;20.92;44.24
74792;SHT30;63319;46.046;17.802;2023-03-01T14:08:30;20.92;44.02
74792;SHT30;63319;46.046;17.802;2023-03-01T14:18:24;20.91;44.26
74792;SHT30;63319;46.046;17.802;2023-03-01T14:21:30;20.91;44.03
74792;SHT30;63319;46.046;17.802;2023-03-01T14:24:35;20.89;44.10
74792;SHT30;63319;46.046;17.802;2023-03-01T14:27:40;20.84;43.93
74792;SHT30;63319;46.046;17.802;2023-03-01T14:30:50;20.82;44.07
74792;SHT30;63319;46.046;17.802;2023-03-01T14:33:56;20.82;44.04
74792;SHT30;63319;46.046;17.802;2023-03-01T14:40:34;20.79;43.82
74792;SHT30;63319;46.046;17.802;2023-03-01T14:43:39;20.79;44.28
74792;SHT30;63319;46.046;17.802;2023-03-01T14:46:45;20.79;43.97
74792;SHT30;63319;46.046;17.802;2023-03-01T14:53:22;20.74;44.12
74792;SHT30;63319;46.046;17.802;2023-03-01T14:56:26;20.74;43.91
74792;SHT30;63319;46.046;17.802;2023-03-01T14:59:29;20.68;44.09
74792;SHT30;63319;46.046;17.802;2023-03-01T15:02:33;20.69;43.63
74792;SHT30;63319;46.046;17.802;2023-03-01T15:05:37;20.68;43.22
74792;SHT30;63319;46.046;17.802;2023-03-01T15:08:42;20.65;43.37
74792;SHT30;63319;46.046;17.802;2023-03-01T15:11:47;20.65;44.29
74792;SHT30;63319;46.046;17.802;2023-03-01T15:14:50;20.65;43.69
74792;SHT30;63319;46.046;17.802;2023-03-01T15:18:28;20.63;43.81
74792;SHT30;63319;46.046;17.802;2023-03-01T15:21:35;20.65;43.99
74792;SHT30;63319;46.046;17.802;2023-03-01T15:24:38;20.63;44.11
74792;SHT30;63319;46.046;17.802;2023-03-01T15:27:45;20.61;44.36
74792;SHT30;63319;46.046;17.802;2023-03-01T15:31:32;20.60;44.53
74792;SHT30;63319;46.046;17.802;2023-03-01T15:34:37;20.57;44.40
74792;SHT30;63319;46.046;17.802;2023-03-01T15:37:48;20.57;44.39
74792;SHT30;63319;46.046;17.802;2023-03-01T15:40:52;20.58;44.46
74792;SHT30;63319;46.046;17.802;2023-03-01T15:43:55;20.61;44.40
74792;SHT30;63319;46.046;17.802;2023-03-01T15:46:58;20.61;44.25
74792;SHT30;63319;46.046;17.802;2023-03-01T15:50:02;20.60;44.42
74792;SHT30;63319;46.046;17.802;2023-03-01T15:53:11;20.60;44.31
74792;SHT30;63319;46.046;17.802;2023-03-01T15:56:18;20.58;44.36
74792;SHT30;63319;46.046;17.802;2023-03-01T15:59:20;20.57;44.35
74792;SHT30;63319;46.046;17.802;2023-03-01T16:02:24;20.57;44.18
74792;SHT30;63319;46.046;17.802;2023-03-01T16:05:30;20.52;43.64
74792;SHT30;63319;46.046;17.802;2023-03-01T16:08:33;20.54;43.62
74792;SHT30;63319;46.046;17.802;2023-03-01T16:11:36;20.50;43.77
74792;SHT30;63319;46.046;17.802;2023-03-01T16:14:40;20.51;43.75
74792;SHT30;63319;46.046;17.802;2023-03-01T16:17:44;20.50;43.86
74792;SHT30;63319;46.046;17.802;2023-03-01T16:20:56;20.50;43.70
74792;SHT30;63319;46.046;17.802;2023-03-01T16:23:59;20.48;43.45
74792;SHT30;63319;46.046;17.802;2023-03-01T16:27:02;20.45;43.88
74792;SHT30;63319;46.046;17.802;2023-03-01T16:30:06;20.44;43.68
74792;SHT30;63319;46.046;17.802;2023-03-01T16:33:16;20.43;43.60
74792;SHT30;63319;46.046;17.802;2023-03-01T16:36:35;20.43;43.45
74792;SHT30;63319;46.046;17.802;2023-03-01T16:39:39;20.43;43.45
74792;SHT30;63319;46.046;17.802;2023-03-01T16:42:42;20.36;43.53
74792;SHT30;63319;46.046;17.802;2023-03-01T16:45:46;20.36;43.35
74792;SHT30;63319;46.046;17.802;2023-03-01T16:48:50;20.34;43.67
74792;SHT30;63319;46.046;17.802;2023-03-01T16:51:54;20.37;43.43
74792;SHT30;63319;46.046;17.802;2023-03-01T16:54:57;20.36;43.47
74792;SHT30;63319;46.046;17.802;2023-03-01T16:58:01;20.34;43.64
74792;SHT30;63319;46.046;17.802;2023-03-01T17:01:07;20.34;43.75
74792;SHT30;63319;46.046;17.802;2023-03-01T17:04:12;20.33;43.67
74792;SHT30;63319;46.046;17.802;2023-03-01T17:07:15;20.33;43.59
74792;SHT30;63319;46.046;17.802;2023-03-01T17:10:19;20.30;43.49
74792;SHT30;63319;46.046;17.802;2023-03-01T17:13:23;20.34;43.32
74792;SHT30;63319;46.046;17.802;2023-03-01T17:16:26;20.30;43.28
74792;SHT30;63319;46.046;17.802;2023-03-01T17:19:30;20.31;43.35
74792;SHT30;63319;46.046;17.802;2023-03-01T17:22:34;20.31;43.42
74792;SHT30;63319;46.046;17.802;2023-03-01T17:25:45;20.29;43.29
74792;SHT30;63319;46.046;17.802;2023-03-01T17:28:48;20.27;43.45
74792;SHT30;63319;46.046;17.802;2023-03-01T17:31:54;20.27;43.12
74792;SHT30;63319;46.046;17.802;2023-03-01T17:34:59;20.27;43.58
74792;SHT30;63319;46.046;17.802;2023-03-01T17:38:05;20.24;43.28
74792;SHT30;63319;46.046;17.802;2023-03-01T17:41:08;20.24;43.31
74792;SHT30;63319;46.046;17.802;2023-03-01T17:44:14;20.24;43.33
74792;SHT30;63319;46.046;17.802;2023-03-01T17:47:17;20.24;43.21
74792;SHT30;63319;46.046;17.802;2023-03-01T17:50:20;20.23;43.22
74792;SHT30;63319;46.046;17.802;2023-03-01T17:53:27;20.23;43.09
74792;SHT30;63319;46.046;17.802;2023-03-01T17:56:31;20.21;43.09
74792;SHT30;63319;46.046;17.802;2023-03-01T17:59:36;20.23;43.45
74792;SHT30;63319;46.046;17.802;2023-03-01T18:02:39;20.23;43.05
74792;SHT30;63319;46.046;17.802;2023-03-01T18:05:44;20.21;43.38
74792;SHT30;63319;46.046;17.802;2023-03-01T18:08:49;20.21;42.99
74792;SHT30;63319;46.046;17.802;2023-03-01T18:11:55;20.21;43.38
74792;SHT30;63319;46.046;17.802;2023-03-01T18:15:00;20.19;43.13
74792;SHT30;63319;46.046;17.802;2023-03-01T18:18:06;20.19;42.89
74792;SHT30;63319;46.046;17.802;2023-03-01T18:21:11;20.20;43.34
74792;SHT30;63319;46.046;17.802;2023-03-01T18:24:15;20.21;43.18
74792;SHT30;63319;46.046;17.802;2023-03-01T18:27:19;20.20;43.20
74792;SHT30;63319;46.046;17.802;2023-03-01T18:30:23;20.20;42.88
74792;SHT30;63319;46.046;17.802;2023-03-01T18:33:27;20.16;43.28
74792;SHT30;63319;46.046;17.802;2023-03-01T18:36:32;20.16;43.48
74792;SHT30;63319;46.046;17.802;2023-03-01T18:39:37;20.17;43.49
74792;SHT30;63319;46.046;17.802;2023-03-01T18:42:42;20.16;43.12
74792;SHT30;63319;46.046;17.802;2023-03-01T18:45:45;20.17;43.30
74792;SHT30;63319;46.046;17.802;2023-03-01T18:48:52;20.17;43.52
74792;SHT30;63319;46.046;17.802;2023-03-01T18:51:56;20.19;43.38
74792;SHT30;63319;46.046;17.802;2023-03-01T18:55:00;20.19;43.59
74792;SHT30;63319;46.046;17.802;2023-03-01T18:58:04;20.19;43.35
74792;SHT30;63319;46.046;17.802;2023-03-01T19:01:19;20.17;42.94
74792;SHT30;63319;46.046;17.802;2023-03-01T19:04:23;20.19;42.99
74792;SHT30;63319;46.046;17.802;2023-03-01T19:07:27;20.20;43.27
74792;SHT30;63319;46.046;17.802;2023-03-01T19:10:31;20.14;43.15
74792;SHT30;63319;46.046;17.802;2023-03-01T19:13:36;20.16;43.40
74792;SHT30;63319;46.046;17.802;2023-03-01T19:16:41;20.10;42.95
74792;SHT30;63319;46.046;17.802;2023-03-01T19:19:45;20.10;43.11
74792;SHT30;63319;46.046;17.802;2023-03-01T19:22:50;20.09;43.13
74792;SHT30;63319;46.046;17.802;2023-03-01T19:26:02;20.12;43.09
74792;SHT30;63319;46.046;17.802;2023-03-01T19:29:06;20.16;43.36
74792;SHT30;63319;46.046;17.802;2023-03-01T19:32:13;20.14;42.85
74792;SHT30;63319;46.046;17.802;2023-03-01T19:35:19;20.14;43.24
74792;SHT30;63319;46.046;17.802;2023-03-01T19:38:24;20.14;43.58
74792;SHT30;63319;46.046;17.802;2023-03-01T19:41:28;20.13;43.28
74792;SHT30;63319;46.046;17.802;2023-03-01T19:44:33;20.14;43.65
74792;SHT30;63319;46.046;17.802;2023-03-01T19:47:37;20.16;43.38
74792;SHT30;63319;46.046;17.802;2023-03-01T19:50:42;20.16;43.24
74792;SHT30;63319;46.046;17.802;2023-03-01T19:53:47;20.14;42.95
74792;SHT30;63319;46.046;17.802;2023-03-01T19:56:52;20.17;43.00
74792;SHT30;63319;46.046;17.802;2023-03-01T19:59:58;20.13;43.10
74792;SHT30;63319;46.046;17.802;2023-03-01T20:03:16;20.13;43.08
74792;SHT30;63319;46.046;17.802;2023-03-01T20:06:21;20.13;43.21
74792;SHT30;63319;46.046;17.802;2023-03-01T20:09:29;20.13;43.29
74792;SHT30;63319;46.046;17.802;2023-03-01T20:12:35;20.14;43.15
74792;SHT30;63319;46.046;17.802;2023-03-01T20:15:42;20.12;43.23
74792;SHT30;63319;46.046;17.802;2023-03-01T20:18:46;20.14;43.01
74792;SHT30;63319;46.046;17.802;2023-03-01T20:21:53;20.14;43.27
74792;SHT30;63319;46.046;17.802;2023-03-01T20:24:57;20.14;42.87
74792;SHT30;63319;46.046;17.802;2023-03-01T20:28:02;20.13;43.08
74792;SHT30;63319;46.046;17.802;2023-03-01T20:31:08;20.10;42.82
74792;SHT30;63319;46.046;17.802;2023-03-01T20:34:13;20.14;43.17
74792;SHT30;63319;46.046;17.802;2023-03-01T20:37:21;20.10;43.12
74792;SHT30;63319;46.046;17.802;2023-03-01T20:40:35;20.12;43.13